Kish International Airport

Current Flights

Info
Name: Kish International Airport
Identifier:  KIH/OIBK
Local Time:  20. May 07:05
City
Kish Island
  Iran

Flights per Day
26 flights
Distance: 904km (561mi)
Punctuality
88% (3 flights per day delayed)
Delay Average: 75 minutes
Current Weather
 28 C (Humidity: 61%)
  12kt (22km/h / 13mph) from 40°
  7km (4 mi.)
 METAR OIBK 200200Z 04012KT 7000 NSC 28/20 Q1008

Current Delays

Departures
N/A
Arrivals
N/A

Destinations

Top Destinations
Airport Flights
per week
Seats
per week
  Tehran (THR) 91 8,239 13 1177
  Bandar Abbas (BND) 21 693 3 99
  Mashhad (MHD) 14 469 2 67
  Shiraz (SYZ) 14 980 2 140
  Tabriz (TBZ) <1 - 0 0
  Bushehr (BUZ) <1 154 0 22
  Kerman (KER) <1 322 0 46
  Isfahan (IFN) <1 420 0 60

Airlines & Planes

Top Airlines
Airline Flights
per Day
Seats
per Day
  Kish Air 10 469
  Iran Air 4 297
  Zagros Air 3 564
  Mahan Airlines 3 200
  Iran Air Tours 1 -
Zagros Airlines 1 56
  Sepehran Airlines <1 -
  Qeshm Airlines <1 21
  Meraj Airlines <1 36
  Iran Aseman Airlines <1 7
Top Plane Types
Manufacturer Model Flights Seats
Fokker 100 4.6/day 28/day 28.866666666666667
McDonnell-Douglas MD-83 4.2/day 171/day 171.73333333333332
ATR 76-600 3.8/day 197/day 197.2
McDonnell-Douglas MD-82 3.7/day 297/day 297.3
Airbus A320 3.5/day 336/day 336.4
Airbus A321 2.0/day 432/day 432.6666666666667
Airbus A300-600 1.7/day 28/day 28.8
British-Aerospace Avro RJ-100 0.6/day 46/day 46.666666666666664
Boeing B737-500 0.6/day - 0